createdAt,value
2023-01-12T00:00:28.512Z,6.4
2023-01-12T00:05:22.161Z,6.4
2023-01-12T00:07:47.611Z,6.4
2023-01-12T00:10:13.051Z,6.3
2023-01-12T00:15:06.712Z,6.3
2023-01-12T00:17:33.557Z,6.3
2023-01-12T00:20:00.395Z,6.3
2023-01-12T00:22:27.909Z,6.2
2023-01-12T00:27:20.946Z,6.2
2023-01-12T00:29:47.754Z,6.2
2023-01-12T00:32:14.615Z,6.2
2023-01-12T00:34:41.436Z,6.2
2023-01-12T00:37:08.268Z,6.1
2023-01-12T00:39:35.116Z,6.1
2023-01-12T00:42:00.544Z,6.1
2023-01-12T00:44:27.375Z,6.1
2023-01-12T00:46:54.214Z,6.1
2023-01-12T00:49:21.068Z,6.1
2023-01-12T00:51:47.892Z,6.1
2023-01-12T00:54:14.730Z,6.1
2023-01-12T00:56:41.580Z,6.1
2023-01-12T01:04:02.092Z,6.1
2023-01-12T01:06:28.954Z,6.1
2023-01-12T01:08:55.780Z,6.1
2023-01-12T01:11:22.622Z,6.1
2023-01-12T01:13:48.024Z,6.1
2023-01-12T01:16:14.875Z,6.1
2023-01-12T01:18:41.718Z,6.1
2023-01-12T01:21:08.553Z,6.1
2023-01-12T01:23:35.402Z,6.2
2023-01-12T01:26:02.244Z,6.2
2023-01-12T01:28:29.087Z,6.2
2023-01-12T01:30:55.920Z,6.2
2023-01-12T01:33:22.755Z,6.2
2023-01-12T01:35:49.603Z,6.2
2023-01-12T01:38:16.433Z,6.2
2023-01-12T01:40:43.296Z,6.2
2023-01-12T01:43:10.110Z,6.2
2023-01-12T01:45:35.540Z,6.2
2023-01-12T01:48:02.381Z,6.2
2023-01-12T01:50:29.911Z,6.2
2023-01-12T01:52:54.779Z,6.2
2023-01-12T01:55:20.118Z,6.2
2023-01-12T01:57:46.954Z,6.2
2023-01-12T02:00:13.779Z,6.2
2023-01-12T02:02:40.622Z,6.2
2023-01-12T02:05:07.445Z,6.2
2023-01-12T02:07:34.306Z,6.2
2023-01-12T02:10:01.130Z,6.2
2023-01-12T02:12:27.985Z,6.2
2023-01-12T02:14:54.813Z,6.2
2023-01-12T02:17:21.729Z,6.2
2023-01-12T02:19:47.132Z,6.2
2023-01-12T02:22:12.529Z,6.2
2023-01-12T02:24:39.379Z,6.2
2023-01-12T02:27:06.209Z,6.2
2023-01-12T02:31:59.905Z,6.3
2023-01-12T02:34:26.753Z,6.3
2023-01-12T02:36:53.573Z,6.3
2023-01-12T02:41:47.256Z,6.3
2023-01-12T02:44:14.106Z,6.3
2023-01-12T02:46:40.943Z,6.3
2023-01-12T02:49:07.776Z,6.3
2023-01-12T02:51:33.288Z,6.4
2023-01-12T02:53:58.645Z,6.4
2023-01-12T02:56:25.497Z,6.4
2023-01-12T02:58:52.336Z,6.4
2023-01-12T03:01:19.168Z,6.4
2023-01-12T03:03:46.053Z,6.4
2023-01-12T03:06:12.865Z,6.4
2023-01-12T03:08:39.704Z,6.4
2023-01-12T03:11:06.538Z,6.5
2023-01-12T03:13:33.394Z,6.5
2023-01-12T03:16:00.209Z,6.5
2023-01-12T03:18:25.681Z,6.5
2023-01-12T03:20:51.116Z,6.5
2023-01-12T03:23:17.950Z,6.5
2023-01-12T03:25:44.791Z,6.5
2023-01-12T03:28:11.613Z,6.5
2023-01-12T03:30:38.465Z,6.5
2023-01-12T03:33:05.287Z,6.5
2023-01-12T03:35:32.133Z,6.5
2023-01-12T03:37:58.977Z,6.5
2023-01-12T03:40:25.811Z,6.5
2023-01-12T03:42:52.650Z,6.5
2023-01-12T03:45:19.484Z,6.5
2023-01-12T03:47:46.340Z,6.5
2023-01-12T03:50:13.179Z,6.5
2023-01-12T03:52:38.611Z,6.5
2023-01-12T03:55:05.423Z,6.5
2023-01-12T03:57:32.279Z,6.5
2023-01-12T03:59:59.113Z,6.5
2023-01-12T04:04:52.794Z,6.5
2023-01-12T04:07:19.640Z,6.5
2023-01-12T04:09:46.497Z,6.5
2023-01-12T04:12:13.304Z,6.5
2023-01-12T04:14:40.161Z,6.5
2023-01-12T04:17:07.436Z,6.5
2023-01-12T04:22:00.674Z,6.5
2023-01-12T04:24:26.086Z,6.5
2023-01-12T04:26:52.929Z,6.5
2023-01-12T04:29:19.775Z,6.5
2023-01-12T04:31:46.613Z,6.5
2023-01-12T04:34:13.454Z,6.5
2023-01-12T04:36:40.293Z,6.5
2023-01-12T04:39:07.138Z,6.5
2023-01-12T04:41:33.981Z,6.5
2023-01-12T04:44:00.808Z,6.5
2023-01-12T04:46:27.652Z,6.5
2023-01-12T04:48:54.580Z,6.5
2023-01-12T04:51:21.357Z,6.5
2023-01-12T04:53:48.183Z,6.5
2023-01-12T04:56:13.590Z,6.5
2023-01-12T04:58:40.460Z,6.5
2023-01-12T05:01:07.275Z,6.5
2023-01-12T05:03:34.121Z,6.5
2023-01-12T05:06:00.944Z,6.5
2023-01-12T05:08:27.783Z,6.5
2023-01-12T05:10:54.655Z,6.5
2023-01-12T05:13:21.474Z,6.6
2023-01-12T05:15:48.327Z,6.6
2023-01-12T05:18:15.146Z,6.6
2023-01-12T05:20:42.006Z,6.6
2023-01-12T05:23:08.846Z,6.6
2023-01-12T05:25:35.670Z,6.6
2023-01-12T05:28:02.478Z,6.6
2023-01-12T05:30:27.908Z,6.6
2023-01-12T05:32:54.751Z,6.6
2023-01-12T05:35:21.629Z,6.6
2023-01-12T05:37:48.443Z,6.7
2023-01-12T05:40:15.291Z,6.7
2023-01-12T05:42:42.096Z,6.7
2023-01-12T05:45:08.930Z,6.7
2023-01-12T05:47:35.793Z,6.7
2023-01-12T05:50:02.632Z,6.8
2023-01-12T05:52:29.482Z,6.8
2023-01-12T05:54:56.306Z,6.8
2023-01-12T05:57:23.149Z,6.8
2023-01-12T05:59:50.011Z,6.8
2023-01-12T06:02:15.407Z,6.8
2023-01-12T06:04:42.251Z,6.8
2023-01-12T06:07:09.111Z,6.8
2023-01-12T06:09:35.923Z,6.9
2023-01-12T06:12:02.776Z,6.9
2023-01-12T06:14:29.598Z,6.9
2023-01-12T06:16:56.452Z,6.9
2023-01-12T06:19:23.282Z,6.9
2023-01-12T06:21:50.124Z,6.9
2023-01-12T06:24:16.960Z,6.9
2023-01-12T06:26:43.805Z,7
2023-01-12T06:29:10.698Z,7
2023-01-12T06:31:37.473Z,7
2023-01-12T06:34:02.897Z,7
2023-01-12T06:36:29.733Z,7
2023-01-12T06:38:56.573Z,7
2023-01-12T06:41:23.419Z,7
2023-01-12T06:43:50.266Z,7
2023-01-12T06:46:17.094Z,7
2023-01-12T06:51:10.793Z,7
2023-01-12T06:56:04.446Z,7
2023-01-12T06:58:31.509Z,7
2023-01-12T07:03:24.990Z,7
2023-01-12T07:05:50.856Z,7
2023-01-12T07:08:17.251Z,7
2023-01-12T07:10:42.673Z,7.1
2023-01-12T07:13:09.504Z,7
2023-01-12T07:15:36.384Z,7
2023-01-12T07:18:03.211Z,7.1
2023-01-12T07:20:30.030Z,7.1
2023-01-12T07:22:56.955Z,7.1
2023-01-12T07:25:23.751Z,7.1
2023-01-12T07:27:50.556Z,7.1
2023-01-12T07:30:17.389Z,7.1
2023-01-12T07:32:44.198Z,7.1
2023-01-12T07:35:09.658Z,7.1
2023-01-12T07:37:35.087Z,7.1
2023-01-12T07:40:01.917Z,7.1
2023-01-12T07:42:28.988Z,7.2
2023-01-12T07:47:22.444Z,7.2
2023-01-12T07:49:49.374Z,7.2
2023-01-12T07:52:16.186Z,7.2
2023-01-12T07:54:42.960Z,7.2
2023-01-12T07:57:09.802Z,7.2
2023-01-12T07:59:36.664Z,7.2
2023-01-12T08:02:03.490Z,7.3
2023-01-12T08:04:30.332Z,7.3
2023-01-12T08:06:57.214Z,7.3
2023-01-12T08:09:24.068Z,7.3
2023-01-12T08:11:49.402Z,7.3
2023-01-12T08:14:16.223Z,7.3
2023-01-12T08:16:43.092Z,7.4
2023-01-12T08:19:09.530Z,7.4
2023-01-12T08:21:35.341Z,7.4
2023-01-12T08:24:02.219Z,7.4
2023-01-12T08:26:29.048Z,7.5
2023-01-12T08:28:56.156Z,7.5
2023-01-12T08:31:22.714Z,7.5
2023-01-12T08:33:49.560Z,7.5
2023-01-12T08:36:16.404Z,7.6
2023-01-12T08:38:43.392Z,7.6
2023-01-12T08:41:10.094Z,7.6
2023-01-12T08:43:36.970Z,7.6
2023-01-12T08:46:03.738Z,7.6
2023-01-12T08:48:30.643Z,7.7
2023-01-12T08:50:56.023Z,7.7
2023-01-12T08:55:49.708Z,7.8
2023-01-12T08:58:16.672Z,7.8
2023-01-12T09:00:43.378Z,7.8
2023-01-12T09:03:10.209Z,7.9
2023-01-12T09:05:37.040Z,7.9
2023-01-12T09:08:03.970Z,7.9
2023-01-12T09:10:30.724Z,8
2023-01-12T09:12:57.560Z,8
2023-01-12T09:15:24.440Z,8
2023-01-12T09:17:51.435Z,8.1
2023-01-12T09:22:44.930Z,8.1
2023-01-12T09:25:11.735Z,8.1
2023-01-12T09:27:37.149Z,8.1
2023-01-12T09:30:03.987Z,8.1
2023-01-12T09:32:30.851Z,8.2
2023-01-12T09:34:57.837Z,8.2
2023-01-12T09:37:24.512Z,8.2
2023-01-12T09:39:51.360Z,8.3
2023-01-12T09:42:18.196Z,8.3
2023-01-12T09:49:38.860Z,8.3
2023-01-12T09:52:04.176Z,8.4
2023-01-12T09:54:30.976Z,8.4
2023-01-12T09:56:56.405Z,8.4
2023-01-12T09:59:23.248Z,8.4
2023-01-12T10:01:50.147Z,8.4
2023-01-12T10:04:16.916Z,8.5
2023-01-12T10:06:43.751Z,8.5
2023-01-12T10:09:10.604Z,8.5
2023-01-12T10:11:37.432Z,8.5
2023-01-12T10:14:04.280Z,8.6
2023-01-12T10:16:31.119Z,8.6
2023-01-12T10:18:56.568Z,8.6
2023-01-12T10:21:22.435Z,8.7
2023-01-12T10:23:48.841Z,8.7
2023-01-12T10:26:15.697Z,8.8
2023-01-12T10:28:42.513Z,8.8
2023-01-12T10:31:09.369Z,8.8
2023-01-12T10:33:36.197Z,8.9
2023-01-12T10:36:03.040Z,8.9
2023-01-12T10:38:29.878Z,8.9
2023-01-12T10:45:50.402Z,9
2023-01-12T10:48:17.233Z,9
2023-01-12T10:50:44.064Z,9.1
2023-01-12T10:53:10.855Z,9.1
2023-01-12T10:55:36.303Z,9.1
2023-01-12T10:58:01.746Z,9.2
2023-01-12T11:02:55.406Z,9.2
2023-01-12T11:05:22.247Z,9.3
2023-01-12T11:07:49.081Z,9.3
2023-01-12T11:10:15.922Z,9.3
2023-01-12T11:12:42.764Z,9.4
2023-01-12T11:15:09.614Z,9.4
2023-01-12T11:17:36.475Z,9.4
2023-01-12T11:20:03.280Z,9.4
2023-01-12T11:22:30.151Z,9.4
2023-01-12T11:24:56.978Z,9.5
2023-01-12T11:27:23.803Z,9.5
2023-01-12T11:29:49.226Z,9.5
2023-01-12T11:32:16.083Z,9.5
2023-01-12T11:34:42.902Z,9.6
2023-01-12T11:37:10.000Z,9.6
2023-01-12T11:39:36.584Z,9.6
2023-01-12T11:42:03.427Z,9.6
2023-01-12T11:44:30.259Z,9.7
2023-01-12T11:46:57.093Z,9.7
2023-01-12T11:51:50.789Z,9.7
2023-01-12T11:54:17.614Z,9.7
2023-01-12T11:56:43.058Z,9.7
2023-01-12T11:59:08.720Z,9.7
2023-01-12T12:01:35.318Z,9.8
2023-01-12T12:04:02.156Z,9.8
2023-01-12T12:06:28.989Z,9.8
2023-01-12T12:08:55.824Z,9.8
2023-01-12T12:11:22.655Z,9.8
2023-01-12T12:13:49.582Z,9.9
2023-01-12T12:18:43.186Z,9.9
2023-01-12T12:21:10.020Z,10
2023-01-12T12:23:36.873Z,10
2023-01-12T12:26:03.707Z,10.1
2023-01-12T12:28:30.548Z,10.1
2023-01-12T12:30:55.967Z,10.1
2023-01-12T12:33:22.815Z,10.2
2023-01-12T12:35:49.643Z,10.2
2023-01-12T12:38:16.480Z,10.2
2023-01-12T12:40:43.333Z,10.3
2023-01-12T12:43:10.171Z,10.3
2023-01-12T12:45:37.004Z,10.4
2023-01-12T12:48:03.855Z,10.4
2023-01-12T12:50:30.704Z,10.4
2023-01-12T12:52:57.517Z,10.5
2023-01-12T12:55:24.373Z,10.5
2023-01-12T12:57:51.212Z,10.5
2023-01-12T13:02:44.886Z,10.6
2023-01-12T13:05:11.745Z,10.6
2023-01-12T13:07:37.123Z,10.7
2023-01-12T13:10:03.963Z,10.7
2023-01-12T13:14:57.629Z,10.7
2023-01-12T13:17:24.478Z,10.7
2023-01-12T13:19:51.362Z,10.7
2023-01-12T13:22:18.165Z,10.7
2023-01-12T13:24:44.995Z,10.7
2023-01-12T13:27:11.839Z,10.7
2023-01-12T13:29:38.672Z,10.8
2023-01-12T13:32:05.509Z,10.8
2023-01-12T13:34:32.358Z,10.8
2023-01-12T13:36:59.200Z,10.8
2023-01-12T13:39:26.044Z,10.8
2023-01-12T13:41:51.449Z,10.8
2023-01-12T13:44:18.280Z,10.8
2023-01-12T13:46:45.294Z,10.8
2023-01-12T13:49:11.993Z,10.8
2023-01-12T13:54:05.668Z,10.8
2023-01-12T13:56:32.629Z,10.8
2023-01-12T13:58:59.365Z,10.8
2023-01-12T14:01:26.173Z,10.8
2023-01-12T14:03:53.008Z,10.8
2023-01-12T14:06:19.985Z,10.8
2023-01-12T14:08:46.693Z,10.8
2023-01-12T14:11:13.528Z,10.8
2023-01-12T14:13:39.052Z,10.8
2023-01-12T14:16:05.973Z,10.8
2023-01-12T14:18:32.793Z,10.8
2023-01-12T14:20:59.684Z,10.8
2023-01-12T14:25:53.260Z,10.8
2023-01-12T14:28:20.263Z,10.8
2023-01-12T14:30:46.829Z,10.8
2023-01-12T14:33:13.661Z,10.8
2023-01-12T14:35:40.501Z,10.7
2023-01-12T14:38:07.346Z,10.7
2023-01-12T14:40:34.254Z,10.7
2023-01-12T14:43:01.039Z,10.7
2023-01-12T14:45:26.504Z,10.7
2023-01-12T14:47:53.313Z,10.7
2023-01-12T14:50:20.122Z,10.7
2023-01-12T14:52:47.049Z,10.7
2023-01-12T14:55:13.890Z,10.7
2023-01-12T14:57:40.644Z,10.7
2023-01-12T15:00:07.550Z,10.7
2023-01-12T15:02:34.312Z,10.7
2023-01-12T15:05:01.219Z,10.7
2023-01-12T15:07:27.993Z,10.6
2023-01-12T15:09:54.845Z,10.6
2023-01-12T15:12:21.679Z,10.6
2023-01-12T15:14:48.535Z,10.6
2023-01-12T15:19:40.814Z,10.6
2023-01-12T15:22:07.911Z,10.6
2023-01-12T15:24:34.512Z,10.6
2023-01-12T15:27:01.293Z,10.6
2023-01-12T15:31:54.981Z,10.6
2023-01-12T15:34:21.868Z,10.5
2023-01-12T15:36:48.672Z,10.5
2023-01-12T15:39:15.652Z,10.5
2023-01-12T15:41:42.343Z,10.5
2023-01-12T15:44:09.180Z,10.5
2023-01-12T15:46:36.018Z,10.5
2023-01-12T15:49:01.463Z,10.5
2023-01-12T15:51:28.303Z,10.5
2023-01-12T15:53:55.152Z,10.5
2023-01-12T15:56:21.982Z,10.5
2023-01-12T16:01:15.663Z,10.5
2023-01-12T16:03:41.113Z,10.5
2023-01-12T16:06:06.570Z,10.5
2023-01-12T16:08:33.373Z,10.5
2023-01-12T16:11:00.200Z,10.5
2023-01-12T16:13:27.038Z,10.5
2023-01-12T16:15:53.883Z,10.5
2023-01-12T16:18:20.716Z,10.5
2023-01-12T16:20:47.555Z,10.5
2023-01-12T16:23:14.404Z,10.5
2023-01-12T16:25:41.246Z,10.5
2023-01-12T16:28:06.697Z,10.5
2023-01-12T16:30:33.550Z,10.5
2023-01-12T16:35:27.156Z,10.5
2023-01-12T16:37:52.600Z,10.5
2023-01-12T16:40:19.433Z,10.5
2023-01-12T16:42:46.372Z,10.4
2023-01-12T16:45:13.100Z,10.5
2023-01-12T16:47:39.949Z,10.4
2023-01-12T16:50:06.793Z,10.4
2023-01-12T16:52:33.681Z,10.5
2023-01-12T16:55:00.473Z,10.4
2023-01-12T16:57:27.343Z,10.4
2023-01-12T16:59:54.162Z,10.4
2023-01-12T17:02:20.995Z,10.4
2023-01-12T17:04:47.824Z,10.4
2023-01-12T17:07:14.677Z,10.4
2023-01-12T17:09:41.476Z,10.4
2023-01-12T17:12:06.909Z,10.4
2023-01-12T17:14:33.741Z,10.4
2023-01-12T17:17:01.326Z,10.4
2023-01-12T17:19:27.447Z,10.4
2023-01-12T17:21:54.255Z,10.4
2023-01-12T17:24:21.119Z,10.4
2023-01-12T17:29:15.512Z,10.4
2023-01-12T17:31:41.609Z,10.4
2023-01-12T17:34:08.451Z,10.4
2023-01-12T17:36:35.290Z,10.4
2023-01-12T17:39:02.188Z,10.4
2023-01-12T17:41:29.037Z,10.4
2023-01-12T17:43:55.805Z,10.4
2023-01-12T17:46:21.212Z,10.4
2023-01-12T17:48:48.041Z,10.4
2023-01-12T17:51:14.876Z,10.4
2023-01-12T17:53:41.720Z,10.4
2023-01-12T17:56:08.569Z,10.4
2023-01-12T17:58:35.406Z,10.4
2023-01-12T18:01:02.245Z,10.4
2023-01-12T18:03:29.080Z,10.4
2023-01-12T18:05:55.919Z,10.4
2023-01-12T18:08:22.767Z,10.4
2023-01-12T18:13:16.451Z,10.4
2023-01-12T18:18:10.172Z,10.4
2023-01-12T18:20:35.584Z,10.4
2023-01-12T18:23:02.392Z,10.3
2023-01-12T18:25:29.233Z,10.3
2023-01-12T18:27:56.054Z,10.3
2023-01-12T18:30:21.451Z,10.3
2023-01-12T18:35:15.199Z,10.3
2023-01-12T18:37:42.117Z,10.3
2023-01-12T18:40:08.822Z,10.3
2023-01-12T18:42:35.657Z,10.3
2023-01-12T18:45:02.559Z,10.3
2023-01-12T18:47:29.359Z,10.3
2023-01-12T18:49:56.180Z,10.3
2023-01-12T18:52:23.010Z,10.3
2023-01-12T18:54:49.887Z,10.3
2023-01-12T18:57:16.700Z,10.3
2023-01-12T18:59:43.544Z,10.3
2023-01-12T19:07:04.274Z,10.3
2023-01-12T19:11:57.756Z,10.2
2023-01-12T19:16:50.015Z,10.2
2023-01-12T19:19:16.826Z,10.2
2023-01-12T19:24:09.169Z,10.2
2023-01-12T19:26:35.925Z,10.2
2023-01-12T19:33:55.212Z,10.2
2023-01-12T19:36:20.515Z,10.2
2023-01-12T19:41:12.800Z,10.2
2023-01-12T19:43:39.622Z,10.2
2023-01-12T19:46:06.466Z,10.2
2023-01-12T19:48:33.306Z,10.2
2023-01-12T19:53:26.999Z,10.2
2023-01-12T19:55:53.810Z,10.2
2023-01-12T19:58:20.748Z,10.2
2023-01-12T20:00:47.515Z,10.2
2023-01-12T20:03:14.352Z,10.2
2023-01-12T20:05:41.184Z,10.2
2023-01-12T20:08:08.028Z,10.2
2023-01-12T20:10:33.441Z,10.2
2023-01-12T20:13:00.293Z,10.2
2023-01-12T20:15:27.122Z,10.2
2023-01-12T20:17:53.951Z,10.2
2023-01-12T20:20:20.808Z,10.2
2023-01-12T20:22:47.628Z,10.2
2023-01-12T20:25:14.555Z,10.2
2023-01-12T20:27:41.340Z,10.2
2023-01-12T20:30:08.163Z,10.2
2023-01-12T20:32:33.635Z,10.2
2023-01-12T20:34:59.045Z,10.2
2023-01-12T20:37:25.871Z,10.2
2023-01-12T20:39:52.759Z,10.2
2023-01-12T20:42:19.556Z,10.2
2023-01-12T20:44:46.411Z,10.2
2023-01-12T20:47:13.244Z,10.2
2023-01-12T20:49:40.076Z,10.2
2023-01-12T20:52:06.988Z,10.2
2023-01-12T20:54:33.820Z,10.2
2023-01-12T20:57:00.648Z,10.2
2023-01-12T20:59:27.408Z,10.3
2023-01-12T21:01:52.862Z,10.2
2023-01-12T21:04:18.286Z,10.2
2023-01-12T21:06:45.177Z,10.2
2023-01-12T21:11:38.809Z,10.2
2023-01-12T21:16:32.483Z,10.2
2023-01-12T21:18:59.329Z,10.2
2023-01-12T21:21:26.165Z,10.2
2023-01-12T21:23:53.023Z,10.2
2023-01-12T21:26:19.874Z,10.2
2023-01-12T21:28:46.687Z,10.2
2023-01-12T21:31:13.558Z,10.2
2023-01-12T21:33:40.344Z,10.2
2023-01-12T21:36:05.802Z,10.2
2023-01-12T21:38:32.637Z,10.2
2023-01-12T21:43:24.895Z,10.2
2023-01-12T21:48:18.593Z,10.2
2023-01-12T21:50:45.405Z,10.2
2023-01-12T21:53:12.262Z,10.2
2023-01-12T21:55:39.171Z,10.2
2023-01-12T21:58:06.043Z,10.2
2023-01-12T22:02:59.676Z,10.2
2023-01-12T22:05:26.447Z,10.2
2023-01-12T22:07:53.293Z,10.2
2023-01-12T22:10:18.779Z,10.2
2023-01-12T22:12:44.171Z,10.2
2023-01-12T22:15:11.021Z,10.2
2023-01-12T22:17:37.858Z,10.2
2023-01-12T22:20:04.687Z,10.2
2023-01-12T22:22:31.625Z,10.2
2023-01-12T22:24:58.370Z,10.2
2023-01-12T22:27:25.217Z,10.2
2023-01-12T22:29:52.077Z,10.2
2023-01-12T22:32:18.895Z,10.2
2023-01-12T22:34:45.791Z,10.2
2023-01-12T22:37:12.540Z,10.2
2023-01-12T22:42:04.929Z,10.2
2023-01-12T22:44:31.772Z,10.2
2023-01-12T22:46:57.071Z,10.2
2023-01-12T22:51:50.753Z,10.2
2023-01-12T22:54:17.582Z,10.2
2023-01-12T22:56:44.462Z,10.2
2023-01-12T22:59:11.346Z,10.3
2023-01-12T23:01:38.203Z,10.2
2023-01-12T23:04:04.945Z,10.3
2023-01-12T23:06:31.805Z,10.3
2023-01-12T23:08:58.740Z,10.3
2023-01-12T23:11:25.543Z,10.2
2023-01-12T23:13:52.309Z,10.3
2023-01-12T23:16:19.168Z,10.3
2023-01-12T23:18:44.558Z,10.3
2023-01-12T23:21:11.466Z,10.3
2023-01-12T23:23:38.251Z,10.3
2023-01-12T23:26:05.089Z,10.3
2023-01-12T23:28:31.978Z,10.3
2023-01-12T23:33:25.618Z,10.3
2023-01-12T23:35:52.452Z,10.3
2023-01-12T23:38:19.296Z,10.3
2023-01-12T23:40:46.125Z,10.3
2023-01-12T23:43:12.976Z,10.3
2023-01-12T23:45:39.802Z,10.3
2023-01-12T23:48:06.668Z,10.3
2023-01-12T23:50:32.110Z,10.3
2023-01-12T23:52:58.911Z,10.3
2023-01-12T23:55:25.747Z,10.3
2023-01-12T23:57:52.596Z,10.3
